sensor_id;sensor_type;location;lat;lon;timestamp;P1;durP1;ratioP1;P2;durP2;ratioP2
41709;SDS011;59402;48.396;-4.472;2023-07-29T00:00:39;9.05;;;2.10;;
41709;SDS011;59402;48.396;-4.472;2023-07-29T00:03:05;8.82;;;2.50;;
41709;SDS011;59402;48.396;-4.472;2023-07-29T00:05:30;10.98;;;2.38;;
41709;SDS011;59402;48.396;-4.472;2023-07-29T00:07:56;14.48;;;3.10;;
41709;SDS011;59402;48.396;-4.472;2023-07-29T00:10:21;10.27;;;2.88;;
41709;SDS011;59402;48.396;-4.472;2023-07-29T00:12:46;18.17;;;3.40;;
41709;SDS011;59402;48.396;-4.472;2023-07-29T00:15:12;8.98;;;3.22;;
41709;SDS011;59402;48.396;-4.472;2023-07-29T00:17:37;8.48;;;2.65;;
41709;SDS011;59402;48.396;-4.472;2023-07-29T00:20:02;13.20;;;2.88;;
41709;SDS011;59402;48.396;-4.472;2023-07-29T00:22:28;7.95;;;2.13;;
41709;SDS011;59402;48.396;-4.472;2023-07-29T00:24:53;9.50;;;2.40;;
41709;SDS011;59402;48.396;-4.472;2023-07-29T00:27:23;13.55;;;3.03;;
41709;SDS011;59402;48.396;-4.472;2023-07-29T00:29:48;8.40;;;2.53;;
41709;SDS011;59402;48.396;-4.472;2023-07-29T00:32:13;13.20;;;2.88;;
41709;SDS011;59402;48.396;-4.472;2023-07-29T00:34:39;5.93;;;2.22;;
41709;SDS011;59402;48.396;-4.472;2023-07-29T00:37:04;11.02;;;3.25;;
41709;SDS011;59402;48.396;-4.472;2023-07-29T00:39:31;6.77;;;2.93;;
41709;SDS011;59402;48.396;-4.472;2023-07-29T00:41:56;13.27;;;3.60;;
41709;SDS011;59402;48.396;-4.472;2023-07-29T00:44:21;12.00;;;4.03;;
41709;SDS011;59402;48.396;-4.472;2023-07-29T00:46:47;10.70;;;3.78;;
41709;SDS011;59402;48.396;-4.472;2023-07-29T00:49:14;12.60;;;3.85;;
41709;SDS011;59402;48.396;-4.472;2023-07-29T00:51:40;11.68;;;3.15;;
41709;SDS011;59402;48.396;-4.472;2023-07-29T00:54:06;12.82;;;3.80;;
41709;SDS011;59402;48.396;-4.472;2023-07-29T00:56:31;14.95;;;3.20;;
41709;SDS011;59402;48.396;-4.472;2023-07-29T00:58:56;17.85;;;3.92;;
41709;SDS011;59402;48.396;-4.472;2023-07-29T01:01:26;16.98;;;3.80;;
41709;SDS011;59402;48.396;-4.472;2023-07-29T01:03:52;14.77;;;3.45;;
41709;SDS011;59402;48.396;-4.472;2023-07-29T01:06:29;12.57;;;3.47;;
41709;SDS011;59402;48.396;-4.472;2023-07-29T01:09:00;19.00;;;3.03;;
41709;SDS011;59402;48.396;-4.472;2023-07-29T01:13:58;14.07;;;3.30;;
41709;SDS011;59402;48.396;-4.472;2023-07-29T01:16:30;13.52;;;2.47;;
41709;SDS011;59402;48.396;-4.472;2023-07-29T01:18:56;17.42;;;2.97;;
41709;SDS011;59402;48.396;-4.472;2023-07-29T01:21:26;11.65;;;2.47;;
41709;SDS011;59402;48.396;-4.472;2023-07-29T01:23:52;8.27;;;1.63;;
41709;SDS011;59402;48.396;-4.472;2023-07-29T01:26:18;7.63;;;1.70;;
41709;SDS011;59402;48.396;-4.472;2023-07-29T01:28:43;4.10;;;1.35;;
41709;SDS011;59402;48.396;-4.472;2023-07-29T01:31:13;7.15;;;1.60;;
41709;SDS011;59402;48.396;-4.472;2023-07-29T01:33:48;5.50;;;1.30;;
41709;SDS011;59402;48.396;-4.472;2023-07-29T01:36:19;8.93;;;1.90;;
41709;SDS011;59402;48.396;-4.472;2023-07-29T01:38:45;7.82;;;2.83;;
41709;SDS011;59402;48.396;-4.472;2023-07-29T01:41:12;10.57;;;2.47;;
41709;SDS011;59402;48.396;-4.472;2023-07-29T01:43:38;8.35;;;2.50;;
41709;SDS011;59402;48.396;-4.472;2023-07-29T01:46:06;9.98;;;2.90;;
41709;SDS011;59402;48.396;-4.472;2023-07-29T01:48:32;8.15;;;2.25;;
41709;SDS011;59402;48.396;-4.472;2023-07-29T01:50:57;7.57;;;2.75;;
41709;SDS011;59402;48.396;-4.472;2023-07-29T01:53:22;6.53;;;2.35;;
41709;SDS011;59402;48.396;-4.472;2023-07-29T01:55:48;8.98;;;3.03;;
41709;SDS011;59402;48.396;-4.472;2023-07-29T01:58:14;10.38;;;2.97;;
41709;SDS011;59402;48.396;-4.472;2023-07-29T02:00:44;11.93;;;3.45;;
41709;SDS011;59402;48.396;-4.472;2023-07-29T02:03:10;10.95;;;3.13;;
41709;SDS011;59402;48.396;-4.472;2023-07-29T02:05:35;8.07;;;3.20;;
41709;SDS011;59402;48.396;-4.472;2023-07-29T02:08:00;7.82;;;3.28;;
41709;SDS011;59402;48.396;-4.472;2023-07-29T02:10:26;10.77;;;3.22;;
41709;SDS011;59402;48.396;-4.472;2023-07-29T02:12:51;15.25;;;3.25;;
41709;SDS011;59402;48.396;-4.472;2023-07-29T02:15:16;13.82;;;3.63;;
41709;SDS011;59402;48.396;-4.472;2023-07-29T02:17:42;13.35;;;3.40;;
41709;SDS011;59402;48.396;-4.472;2023-07-29T02:20:08;11.27;;;3.58;;
41709;SDS011;59402;48.396;-4.472;2023-07-29T02:22:33;15.73;;;4.28;;
41709;SDS011;59402;48.396;-4.472;2023-07-29T02:24:59;13.25;;;3.95;;
41709;SDS011;59402;48.396;-4.472;2023-07-29T02:27:24;10.57;;;4.13;;
41709;SDS011;59402;48.396;-4.472;2023-07-29T02:29:52;11.50;;;4.07;;
41709;SDS011;59402;48.396;-4.472;2023-07-29T02:32:18;14.20;;;4.68;;
41709;SDS011;59402;48.396;-4.472;2023-07-29T02:34:44;15.88;;;5.05;;
41709;SDS011;59402;48.396;-4.472;2023-07-29T02:37:09;15.05;;;4.70;;
41709;SDS011;59402;48.396;-4.472;2023-07-29T02:39:35;18.70;;;5.20;;
41709;SDS011;59402;48.396;-4.472;2023-07-29T02:42:00;18.98;;;5.50;;
41709;SDS011;59402;48.396;-4.472;2023-07-29T02:44:25;18.75;;;5.78;;
41709;SDS011;59402;48.396;-4.472;2023-07-29T02:46:51;25.67;;;5.97;;
41709;SDS011;59402;48.396;-4.472;2023-07-29T02:49:17;18.48;;;5.82;;
41709;SDS011;59402;48.396;-4.472;2023-07-29T02:51:42;21.17;;;6.22;;
41709;SDS011;59402;48.396;-4.472;2023-07-29T02:54:08;23.90;;;6.55;;
41709;SDS011;59402;48.396;-4.472;2023-07-29T02:56:33;15.95;;;5.20;;
41709;SDS011;59402;48.396;-4.472;2023-07-29T02:58:58;18.98;;;5.18;;
41709;SDS011;59402;48.396;-4.472;2023-07-29T03:01:25;17.55;;;5.47;;
41709;SDS011;59402;48.396;-4.472;2023-07-29T03:03:50;18.25;;;4.75;;
41709;SDS011;59402;48.396;-4.472;2023-07-29T03:06:15;17.98;;;4.82;;
41709;SDS011;59402;48.396;-4.472;2023-07-29T03:08:41;19.73;;;5.25;;
41709;SDS011;59402;48.396;-4.472;2023-07-29T03:11:07;20.63;;;5.53;;
41709;SDS011;59402;48.396;-4.472;2023-07-29T03:13:32;21.23;;;5.53;;
41709;SDS011;59402;48.396;-4.472;2023-07-29T03:16:31;22.42;;;5.20;;
41709;SDS011;59402;48.396;-4.472;2023-07-29T03:18:53;17.25;;;4.80;;
41709;SDS011;59402;48.396;-4.472;2023-07-29T03:21:19;22.88;;;5.40;;
41709;SDS011;59402;48.396;-4.472;2023-07-29T03:23:44;18.77;;;4.80;;
41709;SDS011;59402;48.396;-4.472;2023-07-29T03:26:09;16.70;;;4.68;;
41709;SDS011;59402;48.396;-4.472;2023-07-29T03:28:36;20.08;;;4.80;;
41709;SDS011;59402;48.396;-4.472;2023-07-29T03:31:02;21.20;;;4.73;;
41709;SDS011;59402;48.396;-4.472;2023-07-29T03:33:28;18.75;;;4.53;;
41709;SDS011;59402;48.396;-4.472;2023-07-29T03:35:54;18.15;;;4.10;;
41709;SDS011;59402;48.396;-4.472;2023-07-29T03:38:20;21.20;;;4.97;;
41709;SDS011;59402;48.396;-4.472;2023-07-29T03:40:45;16.90;;;4.22;;
41709;SDS011;59402;48.396;-4.472;2023-07-29T03:43:11;28.17;;;5.35;;
41709;SDS011;59402;48.396;-4.472;2023-07-29T03:45:36;21.92;;;5.03;;
41709;SDS011;59402;48.396;-4.472;2023-07-29T03:48:02;20.02;;;3.78;;
41709;SDS011;59402;48.396;-4.472;2023-07-29T03:50:28;17.58;;;4.15;;
41709;SDS011;59402;48.396;-4.472;2023-07-29T03:52:54;19.98;;;4.82;;
41709;SDS011;59402;48.396;-4.472;2023-07-29T03:55:20;17.38;;;3.97;;
41709;SDS011;59402;48.396;-4.472;2023-07-29T03:57:45;20.40;;;4.45;;
41709;SDS011;59402;48.396;-4.472;2023-07-29T04:00:11;19.80;;;4.32;;
41709;SDS011;59402;48.396;-4.472;2023-07-29T04:02:46;19.83;;;4.10;;
41709;SDS011;59402;48.396;-4.472;2023-07-29T04:05:12;21.67;;;5.00;;
41709;SDS011;59402;48.396;-4.472;2023-07-29T04:07:37;24.98;;;4.97;;
41709;SDS011;59402;48.396;-4.472;2023-07-29T04:10:03;26.73;;;5.10;;
41709;SDS011;59402;48.396;-4.472;2023-07-29T04:12:29;20.90;;;4.88;;
41709;SDS011;59402;48.396;-4.472;2023-07-29T04:14:54;17.33;;;4.72;;
41709;SDS011;59402;48.396;-4.472;2023-07-29T04:17:20;20.75;;;4.72;;
41709;SDS011;59402;48.396;-4.472;2023-07-29T04:19:45;18.55;;;4.35;;
41709;SDS011;59402;48.396;-4.472;2023-07-29T04:22:10;22.75;;;5.05;;
41709;SDS011;59402;48.396;-4.472;2023-07-29T04:24:36;22.85;;;4.75;;
41709;SDS011;59402;48.396;-4.472;2023-07-29T04:27:02;20.60;;;4.63;;
41709;SDS011;59402;48.396;-4.472;2023-07-29T04:29:28;24.38;;;4.97;;
41709;SDS011;59402;48.396;-4.472;2023-07-29T04:31:53;23.00;;;5.28;;
41709;SDS011;59402;48.396;-4.472;2023-07-29T04:34:19;16.67;;;4.57;;
41709;SDS011;59402;48.396;-4.472;2023-07-29T04:36:47;28.13;;;4.88;;
41709;SDS011;59402;48.396;-4.472;2023-07-29T04:39:13;25.63;;;5.28;;
41709;SDS011;59402;48.396;-4.472;2023-07-29T04:41:39;20.63;;;5.38;;
41709;SDS011;59402;48.396;-4.472;2023-07-29T04:44:04;18.85;;;4.32;;
41709;SDS011;59402;48.396;-4.472;2023-07-29T04:46:31;26.48;;;5.50;;
41709;SDS011;59402;48.396;-4.472;2023-07-29T04:48:56;21.02;;;5.18;;
41709;SDS011;59402;48.396;-4.472;2023-07-29T04:51:23;25.73;;;5.30;;
41709;SDS011;59402;48.396;-4.472;2023-07-29T04:53:48;26.75;;;5.20;;
41709;SDS011;59402;48.396;-4.472;2023-07-29T04:56:13;29.75;;;5.70;;
41709;SDS011;59402;48.396;-4.472;2023-07-29T04:58:39;25.52;;;5.22;;
41709;SDS011;59402;48.396;-4.472;2023-07-29T05:01:04;21.60;;;5.53;;
41709;SDS011;59402;48.396;-4.472;2023-07-29T05:03:30;32.88;;;6.15;;
41709;SDS011;59402;48.396;-4.472;2023-07-29T05:05:56;23.33;;;4.80;;
41709;SDS011;59402;48.396;-4.472;2023-07-29T05:08:23;27.60;;;5.97;;
41709;SDS011;59402;48.396;-4.472;2023-07-29T05:10:48;25.52;;;5.47;;
41709;SDS011;59402;48.396;-4.472;2023-07-29T05:13:14;27.13;;;6.15;;
41709;SDS011;59402;48.396;-4.472;2023-07-29T05:15:40;26.33;;;6.22;;
41709;SDS011;59402;48.396;-4.472;2023-07-29T05:18:05;27.15;;;5.25;;
41709;SDS011;59402;48.396;-4.472;2023-07-29T05:20:30;25.80;;;4.95;;
41709;SDS011;59402;48.396;-4.472;2023-07-29T05:22:56;24.52;;;4.47;;
41709;SDS011;59402;48.396;-4.472;2023-07-29T05:25:21;22.15;;;4.60;;
41709;SDS011;59402;48.396;-4.472;2023-07-29T05:27:47;23.73;;;5.85;;
41709;SDS011;59402;48.396;-4.472;2023-07-29T05:30:12;26.58;;;5.30;;
41709;SDS011;59402;48.396;-4.472;2023-07-29T05:32:38;28.95;;;5.40;;
41709;SDS011;59402;48.396;-4.472;2023-07-29T05:35:05;28.00;;;5.30;;
41709;SDS011;59402;48.396;-4.472;2023-07-29T05:37:30;20.42;;;5.38;;
41709;SDS011;59402;48.396;-4.472;2023-07-29T05:39:56;24.00;;;5.38;;
41709;SDS011;59402;48.396;-4.472;2023-07-29T05:42:21;20.15;;;4.93;;
41709;SDS011;59402;48.396;-4.472;2023-07-29T05:44:46;24.20;;;5.15;;
41709;SDS011;59402;48.396;-4.472;2023-07-29T05:47:12;19.30;;;4.55;;
41709;SDS011;59402;48.396;-4.472;2023-07-29T05:49:37;21.63;;;4.30;;
41709;SDS011;59402;48.396;-4.472;2023-07-29T05:52:03;25.83;;;5.03;;
41709;SDS011;59402;48.396;-4.472;2023-07-29T05:54:28;19.20;;;4.70;;
41709;SDS011;59402;48.396;-4.472;2023-07-29T05:56:54;19.77;;;4.93;;
41709;SDS011;59402;48.396;-4.472;2023-07-29T05:59:19;17.95;;;4.90;;
41709;SDS011;59402;48.396;-4.472;2023-07-29T06:01:44;18.00;;;4.72;;
41709;SDS011;59402;48.396;-4.472;2023-07-29T06:04:11;24.10;;;4.90;;
41709;SDS011;59402;48.396;-4.472;2023-07-29T06:06:37;17.25;;;4.65;;
41709;SDS011;59402;48.396;-4.472;2023-07-29T06:09:02;19.65;;;5.18;;
41709;SDS011;59402;48.396;-4.472;2023-07-29T06:11:27;18.90;;;4.78;;
41709;SDS011;59402;48.396;-4.472;2023-07-29T06:13:53;21.77;;;5.10;;
41709;SDS011;59402;48.396;-4.472;2023-07-29T06:16:18;23.40;;;5.22;;
41709;SDS011;59402;48.396;-4.472;2023-07-29T06:18:45;17.95;;;5.13;;
41709;SDS011;59402;48.396;-4.472;2023-07-29T06:21:10;24.58;;;5.20;;
41709;SDS011;59402;48.396;-4.472;2023-07-29T06:23:37;26.73;;;5.68;;
41709;SDS011;59402;48.396;-4.472;2023-07-29T06:26:03;20.15;;;4.88;;
41709;SDS011;59402;48.396;-4.472;2023-07-29T06:28:28;22.60;;;4.90;;
41709;SDS011;59402;48.396;-4.472;2023-07-29T06:30:53;25.45;;;4.75;;
41709;SDS011;59402;48.396;-4.472;2023-07-29T06:33:19;15.38;;;4.32;;
41709;SDS011;59402;48.396;-4.472;2023-07-29T06:35:44;21.10;;;4.18;;
41709;SDS011;59402;48.396;-4.472;2023-07-29T06:38:09;20.02;;;5.32;;
41709;SDS011;59402;48.396;-4.472;2023-07-29T06:40:35;19.55;;;4.95;;
41709;SDS011;59402;48.396;-4.472;2023-07-29T06:43:00;18.30;;;4.28;;
41709;SDS011;59402;48.396;-4.472;2023-07-29T06:45:26;19.50;;;4.35;;
41709;SDS011;59402;48.396;-4.472;2023-07-29T06:47:51;22.60;;;4.95;;
41709;SDS011;59402;48.396;-4.472;2023-07-29T06:50:16;25.60;;;5.25;;
41709;SDS011;59402;48.396;-4.472;2023-07-29T06:52:42;21.65;;;4.97;;
41709;SDS011;59402;48.396;-4.472;2023-07-29T06:55:07;24.02;;;5.32;;
41709;SDS011;59402;48.396;-4.472;2023-07-29T06:57:33;21.23;;;4.93;;
41709;SDS011;59402;48.396;-4.472;2023-07-29T06:59:58;17.02;;;4.63;;
41709;SDS011;59402;48.396;-4.472;2023-07-29T07:02:24;19.40;;;5.00;;
41709;SDS011;59402;48.396;-4.472;2023-07-29T07:04:49;22.85;;;4.80;;
41709;SDS011;59402;48.396;-4.472;2023-07-29T07:07:15;24.13;;;4.55;;
41709;SDS011;59402;48.396;-4.472;2023-07-29T07:09:40;21.33;;;4.43;;
41709;SDS011;59402;48.396;-4.472;2023-07-29T07:12:05;17.60;;;4.78;;
41709;SDS011;59402;48.396;-4.472;2023-07-29T07:14:31;15.15;;;3.97;;
41709;SDS011;59402;48.396;-4.472;2023-07-29T07:16:56;21.83;;;4.45;;
41709;SDS011;59402;48.396;-4.472;2023-07-29T07:19:22;14.43;;;4.32;;
41709;SDS011;59402;48.396;-4.472;2023-07-29T07:21:47;20.13;;;5.22;;
41709;SDS011;59402;48.396;-4.472;2023-07-29T07:24:12;25.35;;;4.60;;
41709;SDS011;59402;48.396;-4.472;2023-07-29T07:26:37;18.30;;;5.38;;
41709;SDS011;59402;48.396;-4.472;2023-07-29T07:29:03;18.70;;;4.32;;
41709;SDS011;59402;48.396;-4.472;2023-07-29T07:31:28;20.48;;;4.28;;
41709;SDS011;59402;48.396;-4.472;2023-07-29T07:33:53;19.65;;;4.45;;
41709;SDS011;59402;48.396;-4.472;2023-07-29T07:36:19;20.92;;;5.00;;
41709;SDS011;59402;48.396;-4.472;2023-07-29T07:38:44;24.75;;;4.85;;
41709;SDS011;59402;48.396;-4.472;2023-07-29T07:41:10;21.92;;;4.88;;
41709;SDS011;59402;48.396;-4.472;2023-07-29T07:43:35;25.67;;;4.72;;
41709;SDS011;59402;48.396;-4.472;2023-07-29T07:46:01;18.92;;;4.75;;
41709;SDS011;59402;48.396;-4.472;2023-07-29T07:48:27;21.85;;;5.00;;
41709;SDS011;59402;48.396;-4.472;2023-07-29T07:50:52;23.80;;;4.60;;
41709;SDS011;59402;48.396;-4.472;2023-07-29T07:53:18;22.35;;;4.93;;
41709;SDS011;59402;48.396;-4.472;2023-07-29T07:55:44;13.55;;;3.78;;
41709;SDS011;59402;48.396;-4.472;2023-07-29T07:58:10;14.90;;;3.72;;
41709;SDS011;59402;48.396;-4.472;2023-07-29T08:00:35;15.02;;;3.75;;
41709;SDS011;59402;48.396;-4.472;2023-07-29T08:03:00;15.40;;;3.85;;
41709;SDS011;59402;48.396;-4.472;2023-07-29T08:05:26;12.75;;;3.72;;
41709;SDS011;59402;48.396;-4.472;2023-07-29T08:07:51;14.73;;;4.25;;
41709;SDS011;59402;48.396;-4.472;2023-07-29T08:10:16;13.23;;;3.25;;
41709;SDS011;59402;48.396;-4.472;2023-07-29T08:12:42;9.63;;;3.38;;
41709;SDS011;59402;48.396;-4.472;2023-07-29T08:15:07;12.55;;;3.85;;
41709;SDS011;59402;48.396;-4.472;2023-07-29T08:17:32;8.07;;;3.40;;
41709;SDS011;59402;48.396;-4.472;2023-07-29T08:19:58;13.65;;;4.53;;
41709;SDS011;59402;48.396;-4.472;2023-07-29T08:22:23;13.25;;;4.07;;
41709;SDS011;59402;48.396;-4.472;2023-07-29T08:24:48;14.57;;;3.75;;
41709;SDS011;59402;48.396;-4.472;2023-07-29T08:27:14;11.82;;;3.75;;
41709;SDS011;59402;48.396;-4.472;2023-07-29T08:29:39;16.13;;;3.72;;
41709;SDS011;59402;48.396;-4.472;2023-07-29T08:32:05;12.82;;;4.28;;
41709;SDS011;59402;48.396;-4.472;2023-07-29T08:34:30;13.00;;;3.50;;
41709;SDS011;59402;48.396;-4.472;2023-07-29T08:36:55;12.15;;;4.28;;
41709;SDS011;59402;48.396;-4.472;2023-07-29T08:39:21;15.10;;;3.40;;
41709;SDS011;59402;48.396;-4.472;2023-07-29T08:44:16;10.95;;;3.42;;
41709;SDS011;59402;48.396;-4.472;2023-07-29T08:46:43;11.65;;;3.35;;
41709;SDS011;59402;48.396;-4.472;2023-07-29T08:49:08;13.57;;;3.50;;
41709;SDS011;59402;48.396;-4.472;2023-07-29T08:54:01;14.50;;;3.17;;
41709;SDS011;59402;48.396;-4.472;2023-07-29T08:56:27;10.57;;;3.65;;
41709;SDS011;59402;48.396;-4.472;2023-07-29T08:58:53;8.98;;;2.83;;
41709;SDS011;59402;48.396;-4.472;2023-07-29T09:01:18;13.00;;;3.60;;
41709;SDS011;59402;48.396;-4.472;2023-07-29T09:03:44;12.93;;;3.90;;
41709;SDS011;59402;48.396;-4.472;2023-07-29T09:06:09;15.18;;;4.10;;
41709;SDS011;59402;48.396;-4.472;2023-07-29T09:08:35;12.80;;;3.63;;
41709;SDS011;59402;48.396;-4.472;2023-07-29T09:11:00;12.18;;;3.58;;
41709;SDS011;59402;48.396;-4.472;2023-07-29T09:13:26;19.48;;;4.57;;
41709;SDS011;59402;48.396;-4.472;2023-07-29T09:15:55;15.88;;;4.30;;
41709;SDS011;59402;48.396;-4.472;2023-07-29T09:18:22;15.45;;;4.40;;
41709;SDS011;59402;48.396;-4.472;2023-07-29T09:20:48;15.80;;;5.00;;
41709;SDS011;59402;48.396;-4.472;2023-07-29T09:23:14;14.23;;;4.30;;
41709;SDS011;59402;48.396;-4.472;2023-07-29T09:25:39;17.77;;;4.38;;
41709;SDS011;59402;48.396;-4.472;2023-07-29T09:28:09;11.20;;;3.70;;
41709;SDS011;59402;48.396;-4.472;2023-07-29T09:30:34;15.70;;;3.60;;
41709;SDS011;59402;48.396;-4.472;2023-07-29T09:33:00;11.32;;;3.10;;
41709;SDS011;59402;48.396;-4.472;2023-07-29T09:35:27;7.15;;;2.55;;
41709;SDS011;59402;48.396;-4.472;2023-07-29T09:37:52;8.63;;;2.47;;
41709;SDS011;59402;48.396;-4.472;2023-07-29T09:40:18;9.13;;;3.03;;
41709;SDS011;59402;48.396;-4.472;2023-07-29T09:42:55;10.43;;;2.70;;
41709;SDS011;59402;48.396;-4.472;2023-07-29T09:45:21;7.35;;;2.45;;
41709;SDS011;59402;48.396;-4.472;2023-07-29T09:47:47;9.90;;;2.65;;
41709;SDS011;59402;48.396;-4.472;2023-07-29T09:50:12;9.85;;;3.00;;
41709;SDS011;59402;48.396;-4.472;2023-07-29T09:52:38;11.10;;;2.63;;
41709;SDS011;59402;48.396;-4.472;2023-07-29T09:55:03;10.32;;;2.92;;
41709;SDS011;59402;48.396;-4.472;2023-07-29T09:57:29;7.80;;;2.25;;
41709;SDS011;59402;48.396;-4.472;2023-07-29T09:59:55;8.23;;;2.20;;
41709;SDS011;59402;48.396;-4.472;2023-07-29T10:02:20;7.82;;;2.65;;
41709;SDS011;59402;48.396;-4.472;2023-07-29T10:04:46;6.35;;;2.25;;
41709;SDS011;59402;48.396;-4.472;2023-07-29T10:07:11;9.77;;;2.58;;
41709;SDS011;59402;48.396;-4.472;2023-07-29T10:09:40;8.95;;;2.45;;
41709;SDS011;59402;48.396;-4.472;2023-07-29T10:12:06;9.60;;;2.47;;
41709;SDS011;59402;48.396;-4.472;2023-07-29T10:14:31;9.85;;;2.97;;
41709;SDS011;59402;48.396;-4.472;2023-07-29T10:16:57;9.45;;;2.97;;
41709;SDS011;59402;48.396;-4.472;2023-07-29T10:19:23;7.47;;;2.35;;
41709;SDS011;59402;48.396;-4.472;2023-07-29T10:21:50;10.30;;;2.50;;
41709;SDS011;59402;48.396;-4.472;2023-07-29T10:24:18;8.85;;;2.60;;
41709;SDS011;59402;48.396;-4.472;2023-07-29T10:26:47;10.52;;;2.60;;
41709;SDS011;59402;48.396;-4.472;2023-07-29T10:29:14;9.57;;;2.70;;
41709;SDS011;59402;48.396;-4.472;2023-07-29T10:31:43;7.72;;;2.15;;
41709;SDS011;59402;48.396;-4.472;2023-07-29T10:34:09;8.30;;;2.47;;
41709;SDS011;59402;48.396;-4.472;2023-07-29T10:36:35;10.90;;;2.55;;
41709;SDS011;59402;48.396;-4.472;2023-07-29T10:39:01;11.00;;;2.78;;
41709;SDS011;59402;48.396;-4.472;2023-07-29T10:44:45;10.05;;;2.40;;
41709;SDS011;59402;48.396;-4.472;2023-07-29T10:47:12;6.45;;;2.60;;
41709;SDS011;59402;48.396;-4.472;2023-07-29T10:49:41;7.40;;;2.50;;
41709;SDS011;59402;48.396;-4.472;2023-07-29T10:52:06;11.05;;;2.72;;
41709;SDS011;59402;48.396;-4.472;2023-07-29T10:54:31;8.80;;;2.50;;
41709;SDS011;59402;48.396;-4.472;2023-07-29T10:57:06;9.25;;;2.42;;
41709;SDS011;59402;48.396;-4.472;2023-07-29T10:59:32;12.02;;;2.85;;
41709;SDS011;59402;48.396;-4.472;2023-07-29T11:01:58;13.45;;;3.00;;
41709;SDS011;59402;48.396;-4.472;2023-07-29T11:04:24;11.48;;;2.85;;
41709;SDS011;59402;48.396;-4.472;2023-07-29T11:14:56;11.75;;;3.22;;
41709;SDS011;59402;48.396;-4.472;2023-07-29T11:17:22;12.88;;;2.95;;
41709;SDS011;59402;48.396;-4.472;2023-07-29T11:19:47;10.02;;;2.63;;
41709;SDS011;59402;48.396;-4.472;2023-07-29T11:22:13;8.55;;;2.20;;
41709;SDS011;59402;48.396;-4.472;2023-07-29T11:24:41;12.13;;;3.13;;
41709;SDS011;59402;48.396;-4.472;2023-07-29T11:27:10;10.00;;;2.83;;
41709;SDS011;59402;48.396;-4.472;2023-07-29T11:29:36;11.38;;;2.67;;
41709;SDS011;59402;48.396;-4.472;2023-07-29T11:32:02;9.77;;;2.78;;
41709;SDS011;59402;48.396;-4.472;2023-07-29T11:34:31;10.07;;;3.03;;
41709;SDS011;59402;48.396;-4.472;2023-07-29T11:36:57;11.55;;;3.10;;
41709;SDS011;59402;48.396;-4.472;2023-07-29T11:39:22;8.35;;;2.42;;
41709;SDS011;59402;48.396;-4.472;2023-07-29T11:41:47;8.38;;;2.63;;
41709;SDS011;59402;48.396;-4.472;2023-07-29T11:44:19;11.13;;;3.08;;
41709;SDS011;59402;48.396;-4.472;2023-07-29T11:46:44;8.63;;;2.78;;
41709;SDS011;59402;48.396;-4.472;2023-07-29T11:49:10;5.97;;;2.40;;
41709;SDS011;59402;48.396;-4.472;2023-07-29T11:51:38;8.32;;;2.53;;
41709;SDS011;59402;48.396;-4.472;2023-07-29T11:54:03;6.93;;;2.60;;
41709;SDS011;59402;48.396;-4.472;2023-07-29T11:56:29;10.63;;;3.22;;
41709;SDS011;59402;48.396;-4.472;2023-07-29T11:58:55;9.25;;;2.83;;
41709;SDS011;59402;48.396;-4.472;2023-07-29T12:01:20;9.48;;;2.67;;
41709;SDS011;59402;48.396;-4.472;2023-07-29T12:03:46;14.98;;;3.38;;
41709;SDS011;59402;48.396;-4.472;2023-07-29T12:06:11;10.00;;;2.63;;
41709;SDS011;59402;48.396;-4.472;2023-07-29T12:08:37;10.02;;;2.63;;
41709;SDS011;59402;48.396;-4.472;2023-07-29T12:11:02;8.93;;;2.55;;
41709;SDS011;59402;48.396;-4.472;2023-07-29T12:13:27;11.15;;;3.17;;
41709;SDS011;59402;48.396;-4.472;2023-07-29T12:16:00;11.32;;;2.67;;
41709;SDS011;59402;48.396;-4.472;2023-07-29T12:18:29;5.97;;;2.28;;
41709;SDS011;59402;48.396;-4.472;2023-07-29T12:20:55;8.88;;;2.25;;
41709;SDS011;59402;48.396;-4.472;2023-07-29T12:23:23;9.07;;;2.33;;
41709;SDS011;59402;48.396;-4.472;2023-07-29T12:25:49;8.43;;;2.33;;
41709;SDS011;59402;48.396;-4.472;2023-07-29T12:28:14;10.48;;;2.13;;
41709;SDS011;59402;48.396;-4.472;2023-07-29T12:30:42;7.65;;;1.98;;
41709;SDS011;59402;48.396;-4.472;2023-07-29T12:33:08;8.73;;;1.98;;
41709;SDS011;59402;48.396;-4.472;2023-07-29T12:35:36;9.05;;;1.98;;
41709;SDS011;59402;48.396;-4.472;2023-07-29T12:38:02;7.93;;;2.50;;
41709;SDS011;59402;48.396;-4.472;2023-07-29T12:40:27;8.18;;;2.33;;
41709;SDS011;59402;48.396;-4.472;2023-07-29T12:42:53;8.35;;;2.30;;
41709;SDS011;59402;48.396;-4.472;2023-07-29T12:45:18;6.38;;;2.05;;
41709;SDS011;59402;48.396;-4.472;2023-07-29T12:47:44;10.43;;;2.40;;
41709;SDS011;59402;48.396;-4.472;2023-07-29T12:50:09;6.07;;;1.80;;
41709;SDS011;59402;48.396;-4.472;2023-07-29T12:52:35;11.57;;;2.53;;
41709;SDS011;59402;48.396;-4.472;2023-07-29T12:55:00;12.10;;;2.78;;
41709;SDS011;59402;48.396;-4.472;2023-07-29T12:57:25;14.48;;;2.85;;
41709;SDS011;59402;48.396;-4.472;2023-07-29T12:59:51;9.45;;;2.03;;
41709;SDS011;59402;48.396;-4.472;2023-07-29T13:02:16;9.70;;;2.40;;
41709;SDS011;59402;48.396;-4.472;2023-07-29T13:04:41;13.75;;;2.65;;
41709;SDS011;59402;48.396;-4.472;2023-07-29T13:07:07;10.98;;;2.33;;
41709;SDS011;59402;48.396;-4.472;2023-07-29T13:09:32;11.25;;;2.25;;
41709;SDS011;59402;48.396;-4.472;2023-07-29T13:11:57;12.45;;;3.00;;
41709;SDS011;59402;48.396;-4.472;2023-07-29T13:14:23;17.80;;;2.80;;
41709;SDS011;59402;48.396;-4.472;2023-07-29T13:16:48;15.05;;;2.17;;
41709;SDS011;59402;48.396;-4.472;2023-07-29T13:19:13;10.60;;;2.50;;
41709;SDS011;59402;48.396;-4.472;2023-07-29T13:21:39;12.60;;;2.33;;
41709;SDS011;59402;48.396;-4.472;2023-07-29T13:24:04;9.02;;;2.15;;
41709;SDS011;59402;48.396;-4.472;2023-07-29T13:26:29;9.88;;;1.80;;
41709;SDS011;59402;48.396;-4.472;2023-07-29T13:28:55;10.55;;;2.72;;
41709;SDS011;59402;48.396;-4.472;2023-07-29T13:31:21;10.77;;;1.88;;
41709;SDS011;59402;48.396;-4.472;2023-07-29T13:33:46;14.50;;;2.55;;
41709;SDS011;59402;48.396;-4.472;2023-07-29T13:36:11;12.25;;;2.40;;
41709;SDS011;59402;48.396;-4.472;2023-07-29T13:38:36;9.77;;;2.08;;
41709;SDS011;59402;48.396;-4.472;2023-07-29T13:41:02;10.88;;;1.98;;
41709;SDS011;59402;48.396;-4.472;2023-07-29T13:43:27;11.27;;;2.67;;
41709;SDS011;59402;48.396;-4.472;2023-07-29T13:45:53;12.00;;;2.47;;
41709;SDS011;59402;48.396;-4.472;2023-07-29T13:48:18;10.75;;;2.38;;
41709;SDS011;59402;48.396;-4.472;2023-07-29T13:50:44;11.68;;;2.20;;
41709;SDS011;59402;48.396;-4.472;2023-07-29T13:53:09;9.07;;;2.03;;
41709;SDS011;59402;48.396;-4.472;2023-07-29T13:55:35;8.40;;;2.13;;
41709;SDS011;59402;48.396;-4.472;2023-07-29T13:58:00;10.35;;;2.20;;
41709;SDS011;59402;48.396;-4.472;2023-07-29T14:00:26;12.57;;;2.45;;
41709;SDS011;59402;48.396;-4.472;2023-07-29T14:02:51;6.65;;;1.90;;
41709;SDS011;59402;48.396;-4.472;2023-07-29T14:05:16;9.82;;;1.83;;
41709;SDS011;59402;48.396;-4.472;2023-07-29T14:07:42;9.80;;;2.03;;
41709;SDS011;59402;48.396;-4.472;2023-07-29T14:10:07;6.20;;;1.85;;
41709;SDS011;59402;48.396;-4.472;2023-07-29T14:12:33;9.20;;;1.40;;
41709;SDS011;59402;48.396;-4.472;2023-07-29T14:14:59;6.45;;;1.52;;
41709;SDS011;59402;48.396;-4.472;2023-07-29T14:17:24;10.13;;;1.90;;
41709;SDS011;59402;48.396;-4.472;2023-07-29T14:19:49;10.25;;;1.70;;
41709;SDS011;59402;48.396;-4.472;2023-07-29T14:22:15;13.65;;;2.50;;
41709;SDS011;59402;48.396;-4.472;2023-07-29T14:24:40;13.38;;;2.50;;
41709;SDS011;59402;48.396;-4.472;2023-07-29T14:27:05;11.50;;;2.35;;
41709;SDS011;59402;48.396;-4.472;2023-07-29T14:29:31;11.23;;;2.22;;
41709;SDS011;59402;48.396;-4.472;2023-07-29T14:31:56;14.70;;;2.05;;
41709;SDS011;59402;48.396;-4.472;2023-07-29T14:34:22;11.85;;;2.28;;
41709;SDS011;59402;48.396;-4.472;2023-07-29T14:36:47;12.15;;;2.55;;